sensor_id;sensor_type;location;lat;lon;timestamp;temperature;humidity
57833;DHT22;43667;53.036;6.740;2023-06-22T00:01:09;17.80;99.90
57833;DHT22;43667;53.036;6.740;2023-06-22T00:03:35;17.70;99.90
57833;DHT22;43667;53.036;6.740;2023-06-22T00:06:00;17.60;99.90
57833;DHT22;43667;53.036;6.740;2023-06-22T00:08:26;17.60;99.90
57833;DHT22;43667;53.036;6.740;2023-06-22T00:10:51;17.60;99.90
57833;DHT22;43667;53.036;6.740;2023-06-22T00:13:17;17.50;99.90
57833;DHT22;43667;53.036;6.740;2023-06-22T00:15:43;17.50;99.90
57833;DHT22;43667;53.036;6.740;2023-06-22T00:18:10;17.50;99.90
57833;DHT22;43667;53.036;6.740;2023-06-22T00:20:36;17.40;99.90
57833;DHT22;43667;53.036;6.740;2023-06-22T00:23:03;17.40;99.90
57833;DHT22;43667;53.036;6.740;2023-06-22T00:25:36;17.30;99.90
57833;DHT22;43667;53.036;6.740;2023-06-22T00:28:03;17.30;99.90
57833;DHT22;43667;53.036;6.740;2023-06-22T00:30:30;17.40;99.90
57833;DHT22;43667;53.036;6.740;2023-06-22T00:32:56;17.30;99.90
57833;DHT22;43667;53.036;6.740;2023-06-22T00:35:21;17.30;99.90
57833;DHT22;43667;53.036;6.740;2023-06-22T00:37:47;17.30;99.90
57833;DHT22;43667;53.036;6.740;2023-06-22T00:40:12;17.30;99.90
57833;DHT22;43667;53.036;6.740;2023-06-22T00:42:40;17.30;99.90
57833;DHT22;43667;53.036;6.740;2023-06-22T00:45:06;17.20;99.90
57833;DHT22;43667;53.036;6.740;2023-06-22T00:47:36;17.20;99.90
57833;DHT22;43667;53.036;6.740;2023-06-22T00:50:05;17.20;99.90
57833;DHT22;43667;53.036;6.740;2023-06-22T00:52:35;17.20;99.90
57833;DHT22;43667;53.036;6.740;2023-06-22T00:55:03;17.20;99.90
57833;DHT22;43667;53.036;6.740;2023-06-22T00:57:29;17.20;99.90
57833;DHT22;43667;53.036;6.740;2023-06-22T00:59:55;17.20;99.90
57833;DHT22;43667;53.036;6.740;2023-06-22T01:02:21;17.20;99.90
57833;DHT22;43667;53.036;6.740;2023-06-22T01:04:47;17.10;99.90
57833;DHT22;43667;53.036;6.740;2023-06-22T01:07:31;17.10;99.90
57833;DHT22;43667;53.036;6.740;2023-06-22T01:10:21;17.10;99.90
57833;DHT22;43667;53.036;6.740;2023-06-22T01:12:52;17.10;99.90
57833;DHT22;43667;53.036;6.740;2023-06-22T01:15:25;17.00;99.90
57833;DHT22;43667;53.036;6.740;2023-06-22T01:17:53;17.00;99.90
57833;DHT22;43667;53.036;6.740;2023-06-22T01:20:20;17.00;99.90
57833;DHT22;43667;53.036;6.740;2023-06-22T01:23:02;16.90;99.90
57833;DHT22;43667;53.036;6.740;2023-06-22T01:25:53;16.90;99.90
57833;DHT22;43667;53.036;6.740;2023-06-22T01:31:08;16.90;99.90
57833;DHT22;43667;53.036;6.740;2023-06-22T01:33:37;16.80;99.90
57833;DHT22;43667;53.036;6.740;2023-06-22T01:36:03;16.80;99.90
57833;DHT22;43667;53.036;6.740;2023-06-22T01:38:30;16.80;99.90
57833;DHT22;43667;53.036;6.740;2023-06-22T01:40:57;16.70;99.90
57833;DHT22;43667;53.036;6.740;2023-06-22T01:43:26;16.70;99.90
57833;DHT22;43667;53.036;6.740;2023-06-22T01:45:52;16.70;99.90
57833;DHT22;43667;53.036;6.740;2023-06-22T01:48:19;16.60;99.90
57833;DHT22;43667;53.036;6.740;2023-06-22T01:50:45;16.60;99.90
57833;DHT22;43667;53.036;6.740;2023-06-22T01:53:12;16.50;99.90
57833;DHT22;43667;53.036;6.740;2023-06-22T01:55:37;16.50;99.90
57833;DHT22;43667;53.036;6.740;2023-06-22T01:58:03;16.50;99.90
57833;DHT22;43667;53.036;6.740;2023-06-22T02:00:32;16.50;99.90
57833;DHT22;43667;53.036;6.740;2023-06-22T02:03:10;16.50;99.90
57833;DHT22;43667;53.036;6.740;2023-06-22T02:05:49;16.50;99.90
57833;DHT22;43667;53.036;6.740;2023-06-22T02:08:20;16.50;99.90
57833;DHT22;43667;53.036;6.740;2023-06-22T02:10:47;16.40;99.90
57833;DHT22;43667;53.036;6.740;2023-06-22T02:13:14;16.40;99.90
57833;DHT22;43667;53.036;6.740;2023-06-22T02:15:41;16.40;99.90
57833;DHT22;43667;53.036;6.740;2023-06-22T02:18:07;16.40;99.90
57833;DHT22;43667;53.036;6.740;2023-06-22T02:20:32;16.40;99.90
57833;DHT22;43667;53.036;6.740;2023-06-22T02:23:01;16.30;99.90
57833;DHT22;43667;53.036;6.740;2023-06-22T02:25:26;16.40;99.90
57833;DHT22;43667;53.036;6.740;2023-06-22T02:27:52;16.30;99.90
57833;DHT22;43667;53.036;6.740;2023-06-22T02:30:18;16.30;99.90
57833;DHT22;43667;53.036;6.740;2023-06-22T02:32:43;16.30;99.90
57833;DHT22;43667;53.036;6.740;2023-06-22T02:35:09;16.30;99.90
57833;DHT22;43667;53.036;6.740;2023-06-22T02:37:39;16.30;99.90
57833;DHT22;43667;53.036;6.740;2023-06-22T02:40:07;16.20;99.90
57833;DHT22;43667;53.036;6.740;2023-06-22T02:42:34;16.20;99.90
57833;DHT22;43667;53.036;6.740;2023-06-22T02:45:00;16.20;99.90
57833;DHT22;43667;53.036;6.740;2023-06-22T02:47:26;16.20;99.90
57833;DHT22;43667;53.036;6.740;2023-06-22T02:49:52;16.20;99.90
57833;DHT22;43667;53.036;6.740;2023-06-22T02:52:17;16.10;99.90
57833;DHT22;43667;53.036;6.740;2023-06-22T02:54:43;16.10;99.90
57833;DHT22;43667;53.036;6.740;2023-06-22T02:57:10;16.10;99.90
57833;DHT22;43667;53.036;6.740;2023-06-22T02:59:39;16.10;99.90
57833;DHT22;43667;53.036;6.740;2023-06-22T03:02:06;16.10;99.90
57833;DHT22;43667;53.036;6.740;2023-06-22T03:04:31;16.00;99.90
57833;DHT22;43667;53.036;6.740;2023-06-22T03:06:57;16.00;99.90
57833;DHT22;43667;53.036;6.740;2023-06-22T03:09:29;16.00;99.90
57833;DHT22;43667;53.036;6.740;2023-06-22T03:11:55;16.00;99.90
57833;DHT22;43667;53.036;6.740;2023-06-22T03:14:20;16.00;99.90
57833;DHT22;43667;53.036;6.740;2023-06-22T03:16:46;16.00;99.90
57833;DHT22;43667;53.036;6.740;2023-06-22T03:19:12;16.00;99.90
57833;DHT22;43667;53.036;6.740;2023-06-22T03:21:38;16.00;99.90
57833;DHT22;43667;53.036;6.740;2023-06-22T03:24:05;15.90;99.90
57833;DHT22;43667;53.036;6.740;2023-06-22T03:26:31;15.90;99.90
57833;DHT22;43667;53.036;6.740;2023-06-22T03:28:56;15.90;99.90
57833;DHT22;43667;53.036;6.740;2023-06-22T03:31:22;15.80;99.90
57833;DHT22;43667;53.036;6.740;2023-06-22T03:33:48;15.90;99.90
57833;DHT22;43667;53.036;6.740;2023-06-22T03:36:15;16.00;99.90
57833;DHT22;43667;53.036;6.740;2023-06-22T03:38:48;15.90;99.90
57833;DHT22;43667;53.036;6.740;2023-06-22T03:41:14;15.90;99.90
57833;DHT22;43667;53.036;6.740;2023-06-22T03:43:40;15.90;99.90
57833;DHT22;43667;53.036;6.740;2023-06-22T03:46:06;15.90;99.90
57833;DHT22;43667;53.036;6.740;2023-06-22T03:48:32;16.00;99.90
57833;DHT22;43667;53.036;6.740;2023-06-22T03:50:59;16.00;99.90
57833;DHT22;43667;53.036;6.740;2023-06-22T03:53:25;16.00;99.90
57833;DHT22;43667;53.036;6.740;2023-06-22T03:55:51;16.00;99.90
57833;DHT22;43667;53.036;6.740;2023-06-22T03:58:19;16.10;99.90
57833;DHT22;43667;53.036;6.740;2023-06-22T04:00:46;16.10;99.90
57833;DHT22;43667;53.036;6.740;2023-06-22T04:03:12;16.10;99.90
57833;DHT22;43667;53.036;6.740;2023-06-22T04:05:39;16.10;99.90
57833;DHT22;43667;53.036;6.740;2023-06-22T04:08:05;16.20;99.90
57833;DHT22;43667;53.036;6.740;2023-06-22T04:10:30;16.20;99.90
57833;DHT22;43667;53.036;6.740;2023-06-22T04:12:56;16.20;99.90
57833;DHT22;43667;53.036;6.740;2023-06-22T04:15:22;16.30;99.90
57833;DHT22;43667;53.036;6.740;2023-06-22T04:17:47;16.30;99.90
57833;DHT22;43667;53.036;6.740;2023-06-22T04:20:13;16.30;99.90
57833;DHT22;43667;53.036;6.740;2023-06-22T04:22:38;16.40;99.90
57833;DHT22;43667;53.036;6.740;2023-06-22T04:25:07;16.40;99.90
57833;DHT22;43667;53.036;6.740;2023-06-22T04:27:33;16.40;99.90
57833;DHT22;43667;53.036;6.740;2023-06-22T04:30:03;16.40;99.90
57833;DHT22;43667;53.036;6.740;2023-06-22T04:32:29;16.50;99.90
57833;DHT22;43667;53.036;6.740;2023-06-22T04:34:55;16.40;99.90
57833;DHT22;43667;53.036;6.740;2023-06-22T04:37:20;16.50;99.90
57833;DHT22;43667;53.036;6.740;2023-06-22T04:39:49;16.50;99.90
57833;DHT22;43667;53.036;6.740;2023-06-22T04:42:15;16.50;99.90
57833;DHT22;43667;53.036;6.740;2023-06-22T04:44:40;16.60;99.90
57833;DHT22;43667;53.036;6.740;2023-06-22T04:47:08;16.60;99.90
57833;DHT22;43667;53.036;6.740;2023-06-22T04:49:36;16.60;99.90
57833;DHT22;43667;53.036;6.740;2023-06-22T04:52:07;16.70;99.90
57833;DHT22;43667;53.036;6.740;2023-06-22T04:54:34;16.70;99.90
57833;DHT22;43667;53.036;6.740;2023-06-22T04:57:06;16.80;99.90
57833;DHT22;43667;53.036;6.740;2023-06-22T04:59:36;16.80;99.90
57833;DHT22;43667;53.036;6.740;2023-06-22T05:02:02;16.90;99.90
57833;DHT22;43667;53.036;6.740;2023-06-22T05:04:29;17.00;99.90
57833;DHT22;43667;53.036;6.740;2023-06-22T05:06:57;17.20;99.90
57833;DHT22;43667;53.036;6.740;2023-06-22T05:09:23;17.20;99.90
57833;DHT22;43667;53.036;6.740;2023-06-22T05:11:50;17.40;99.90
57833;DHT22;43667;53.036;6.740;2023-06-22T05:14:17;17.40;99.90
57833;DHT22;43667;53.036;6.740;2023-06-22T05:16:43;17.40;99.90
57833;DHT22;43667;53.036;6.740;2023-06-22T05:19:09;17.50;99.90
57833;DHT22;43667;53.036;6.740;2023-06-22T05:21:35;17.70;99.90
57833;DHT22;43667;53.036;6.740;2023-06-22T05:24:08;17.70;99.90
57833;DHT22;43667;53.036;6.740;2023-06-22T05:26:41;17.90;99.90
57833;DHT22;43667;53.036;6.740;2023-06-22T05:29:09;18.00;99.90
57833;DHT22;43667;53.036;6.740;2023-06-22T05:31:35;18.10;99.90
57833;DHT22;43667;53.036;6.740;2023-06-22T05:34:00;18.20;99.90
57833;DHT22;43667;53.036;6.740;2023-06-22T05:36:26;18.40;99.90
57833;DHT22;43667;53.036;6.740;2023-06-22T05:38:52;18.40;99.90
57833;DHT22;43667;53.036;6.740;2023-06-22T05:41:18;18.50;99.90
57833;DHT22;43667;53.036;6.740;2023-06-22T05:43:44;18.60;99.90
57833;DHT22;43667;53.036;6.740;2023-06-22T05:46:09;18.80;99.90
57833;DHT22;43667;53.036;6.740;2023-06-22T05:48:35;18.90;99.90
57833;DHT22;43667;53.036;6.740;2023-06-22T05:51:00;18.90;99.90
57833;DHT22;43667;53.036;6.740;2023-06-22T05:53:26;19.00;99.90
57833;DHT22;43667;53.036;6.740;2023-06-22T05:55:52;19.10;99.90
57833;DHT22;43667;53.036;6.740;2023-06-22T05:58:17;19.20;99.90
57833;DHT22;43667;53.036;6.740;2023-06-22T06:00:43;19.30;99.90
57833;DHT22;43667;53.036;6.740;2023-06-22T06:03:10;19.40;99.90
57833;DHT22;43667;53.036;6.740;2023-06-22T06:05:36;19.50;99.90
57833;DHT22;43667;53.036;6.740;2023-06-22T06:08:03;19.60;99.90
57833;DHT22;43667;53.036;6.740;2023-06-22T06:10:33;19.70;99.90
57833;DHT22;43667;53.036;6.740;2023-06-22T06:13:00;19.80;99.90
57833;DHT22;43667;53.036;6.740;2023-06-22T06:15:30;19.90;99.90
57833;DHT22;43667;53.036;6.740;2023-06-22T06:17:55;20.10;99.90
57833;DHT22;43667;53.036;6.740;2023-06-22T06:20:24;20.10;99.90
57833;DHT22;43667;53.036;6.740;2023-06-22T06:22:50;20.20;99.90
57833;DHT22;43667;53.036;6.740;2023-06-22T06:25:17;20.20;99.90
57833;DHT22;43667;53.036;6.740;2023-06-22T06:27:44;20.40;99.90
57833;DHT22;43667;53.036;6.740;2023-06-22T06:30:12;20.40;99.90
57833;DHT22;43667;53.036;6.740;2023-06-22T06:32:38;20.50;99.90
57833;DHT22;43667;53.036;6.740;2023-06-22T06:35:05;20.60;99.90
57833;DHT22;43667;53.036;6.740;2023-06-22T06:37:32;20.70;99.90
57833;DHT22;43667;53.036;6.740;2023-06-22T06:39:58;20.80;99.90
57833;DHT22;43667;53.036;6.740;2023-06-22T06:42:24;20.90;99.90
57833;DHT22;43667;53.036;6.740;2023-06-22T06:44:49;21.10;99.90
57833;DHT22;43667;53.036;6.740;2023-06-22T06:47:15;21.30;99.90
57833;DHT22;43667;53.036;6.740;2023-06-22T06:49:42;21.30;99.90
57833;DHT22;43667;53.036;6.740;2023-06-22T06:52:08;21.50;99.90
57833;DHT22;43667;53.036;6.740;2023-06-22T06:54:33;21.50;99.90
57833;DHT22;43667;53.036;6.740;2023-06-22T06:56:59;21.60;99.90
57833;DHT22;43667;53.036;6.740;2023-06-22T06:59:24;21.70;99.90
57833;DHT22;43667;53.036;6.740;2023-06-22T07:01:51;21.80;99.90
57833;DHT22;43667;53.036;6.740;2023-06-22T07:04:16;21.90;99.90
57833;DHT22;43667;53.036;6.740;2023-06-22T07:06:42;22.00;99.90
57833;DHT22;43667;53.036;6.740;2023-06-22T07:09:08;22.10;99.90
57833;DHT22;43667;53.036;6.740;2023-06-22T07:11:34;22.10;99.90
57833;DHT22;43667;53.036;6.740;2023-06-22T07:14:01;22.10;99.90
57833;DHT22;43667;53.036;6.740;2023-06-22T07:16:26;22.10;99.90
57833;DHT22;43667;53.036;6.740;2023-06-22T07:18:53;22.20;99.90
57833;DHT22;43667;53.036;6.740;2023-06-22T07:21:19;22.20;99.90
57833;DHT22;43667;53.036;6.740;2023-06-22T07:23:44;22.20;99.90
57833;DHT22;43667;53.036;6.740;2023-06-22T07:26:10;22.30;99.90
57833;DHT22;43667;53.036;6.740;2023-06-22T07:28:38;22.50;99.90
57833;DHT22;43667;53.036;6.740;2023-06-22T07:31:06;22.60;99.90
57833;DHT22;43667;53.036;6.740;2023-06-22T07:33:31;22.80;99.90
57833;DHT22;43667;53.036;6.740;2023-06-22T07:36:03;22.90;99.90
57833;DHT22;43667;53.036;6.740;2023-06-22T07:38:33;23.10;99.90
57833;DHT22;43667;53.036;6.740;2023-06-22T07:40:59;23.10;99.90
57833;DHT22;43667;53.036;6.740;2023-06-22T07:43:25;23.20;99.90
57833;DHT22;43667;53.036;6.740;2023-06-22T07:45:51;23.30;99.90
57833;DHT22;43667;53.036;6.740;2023-06-22T07:48:22;23.40;99.90
57833;DHT22;43667;53.036;6.740;2023-06-22T07:50:48;23.50;99.90
57833;DHT22;43667;53.036;6.740;2023-06-22T07:53:14;23.60;99.90
57833;DHT22;43667;53.036;6.740;2023-06-22T07:55:40;23.60;99.90
57833;DHT22;43667;53.036;6.740;2023-06-22T07:58:06;23.70;99.90
57833;DHT22;43667;53.036;6.740;2023-06-22T08:00:31;23.80;99.90
57833;DHT22;43667;53.036;6.740;2023-06-22T08:02:58;24.00;99.90
57833;DHT22;43667;53.036;6.740;2023-06-22T08:05:24;24.10;99.90
57833;DHT22;43667;53.036;6.740;2023-06-22T08:07:50;24.30;99.90
57833;DHT22;43667;53.036;6.740;2023-06-22T08:10:16;24.50;99.90
57833;DHT22;43667;53.036;6.740;2023-06-22T08:12:41;24.80;99.50
57833;DHT22;43667;53.036;6.740;2023-06-22T08:15:07;24.70;99.40
57833;DHT22;43667;53.036;6.740;2023-06-22T08:17:33;24.70;99.30
57833;DHT22;43667;53.036;6.740;2023-06-22T08:19:59;24.70;99.50
57833;DHT22;43667;53.036;6.740;2023-06-22T08:22:25;24.80;98.90
57833;DHT22;43667;53.036;6.740;2023-06-22T08:24:50;24.90;98.00
57833;DHT22;43667;53.036;6.740;2023-06-22T08:27:16;24.90;97.60
57833;DHT22;43667;53.036;6.740;2023-06-22T08:29:43;25.10;97.80
57833;DHT22;43667;53.036;6.740;2023-06-22T08:32:11;25.10;96.90
57833;DHT22;43667;53.036;6.740;2023-06-22T08:34:37;25.20;95.80
57833;DHT22;43667;53.036;6.740;2023-06-22T08:37:10;25.30;95.80
57833;DHT22;43667;53.036;6.740;2023-06-22T08:39:36;25.40;95.30
57833;DHT22;43667;53.036;6.740;2023-06-22T08:42:01;25.50;95.70
57833;DHT22;43667;53.036;6.740;2023-06-22T08:44:27;25.70;94.20
57833;DHT22;43667;53.036;6.740;2023-06-22T08:46:52;25.70;93.80
57833;DHT22;43667;53.036;6.740;2023-06-22T08:49:18;25.80;94.70
57833;DHT22;43667;53.036;6.740;2023-06-22T08:51:44;26.00;93.60
57833;DHT22;43667;53.036;6.740;2023-06-22T08:54:14;26.20;93.20
57833;DHT22;43667;53.036;6.740;2023-06-22T08:56:39;26.30;92.80
57833;DHT22;43667;53.036;6.740;2023-06-22T08:59:05;26.40;91.50
57833;DHT22;43667;53.036;6.740;2023-06-22T09:01:33;26.60;91.20
57833;DHT22;43667;53.036;6.740;2023-06-22T09:03:58;26.70;90.50
57833;DHT22;43667;53.036;6.740;2023-06-22T09:06:25;26.80;87.90
57833;DHT22;43667;53.036;6.740;2023-06-22T09:08:51;26.80;87.30
57833;DHT22;43667;53.036;6.740;2023-06-22T09:11:17;26.80;86.40
57833;DHT22;43667;53.036;6.740;2023-06-22T09:13:42;26.80;85.90
57833;DHT22;43667;53.036;6.740;2023-06-22T09:16:08;26.80;85.90
57833;DHT22;43667;53.036;6.740;2023-06-22T09:18:37;26.90;85.00
57833;DHT22;43667;53.036;6.740;2023-06-22T09:21:03;27.00;85.80
57833;DHT22;43667;53.036;6.740;2023-06-22T09:23:28;27.10;84.50
57833;DHT22;43667;53.036;6.740;2023-06-22T09:25:54;27.30;83.20
57833;DHT22;43667;53.036;6.740;2023-06-22T09:28:19;27.30;81.80
57833;DHT22;43667;53.036;6.740;2023-06-22T09:30:45;27.30;79.50
57833;DHT22;43667;53.036;6.740;2023-06-22T09:33:11;27.20;78.40
57833;DHT22;43667;53.036;6.740;2023-06-22T09:35:36;27.40;80.00
57833;DHT22;43667;53.036;6.740;2023-06-22T09:38:02;27.50;76.90
57833;DHT22;43667;53.036;6.740;2023-06-22T09:40:28;27.60;75.30
57833;DHT22;43667;53.036;6.740;2023-06-22T09:42:54;27.60;74.90
57833;DHT22;43667;53.036;6.740;2023-06-22T09:45:19;27.40;75.30
57833;DHT22;43667;53.036;6.740;2023-06-22T09:47:45;27.40;76.30
57833;DHT22;43667;53.036;6.740;2023-06-22T09:50:10;27.40;73.70
57833;DHT22;43667;53.036;6.740;2023-06-22T09:52:36;27.30;73.10
57833;DHT22;43667;53.036;6.740;2023-06-22T09:55:02;27.30;74.70
57833;DHT22;43667;53.036;6.740;2023-06-22T09:57:29;27.40;74.10
57833;DHT22;43667;53.036;6.740;2023-06-22T09:59:55;27.60;72.60
57833;DHT22;43667;53.036;6.740;2023-06-22T10:02:21;27.60;70.70
57833;DHT22;43667;53.036;6.740;2023-06-22T10:04:47;27.70;69.80
57833;DHT22;43667;53.036;6.740;2023-06-22T10:07:13;27.70;69.70
57833;DHT22;43667;53.036;6.740;2023-06-22T10:09:39;27.80;70.60
57833;DHT22;43667;53.036;6.740;2023-06-22T10:12:05;27.60;69.90
57833;DHT22;43667;53.036;6.740;2023-06-22T10:14:30;27.50;69.60
57833;DHT22;43667;53.036;6.740;2023-06-22T10:16:56;27.70;69.60
57833;DHT22;43667;53.036;6.740;2023-06-22T10:19:22;27.80;68.80
57833;DHT22;43667;53.036;6.740;2023-06-22T10:21:47;27.90;68.90
57833;DHT22;43667;53.036;6.740;2023-06-22T10:24:13;28.20;67.20
57833;DHT22;43667;53.036;6.740;2023-06-22T10:26:39;28.30;65.00
57833;DHT22;43667;53.036;6.740;2023-06-22T10:29:07;28.30;64.60
57833;DHT22;43667;53.036;6.740;2023-06-22T10:31:33;28.30;64.70
57833;DHT22;43667;53.036;6.740;2023-06-22T10:33:58;28.40;64.00
57833;DHT22;43667;53.036;6.740;2023-06-22T10:36:24;28.60;62.60
57833;DHT22;43667;53.036;6.740;2023-06-22T10:38:50;28.60;61.00
57833;DHT22;43667;53.036;6.740;2023-06-22T10:41:15;28.60;61.40
57833;DHT22;43667;53.036;6.740;2023-06-22T10:43:42;28.50;61.90
57833;DHT22;43667;53.036;6.740;2023-06-22T10:46:09;28.30;62.30
57833;DHT22;43667;53.036;6.740;2023-06-22T10:48:34;28.40;62.50
57833;DHT22;43667;53.036;6.740;2023-06-22T10:51:00;28.40;61.30
57833;DHT22;43667;53.036;6.740;2023-06-22T10:53:26;28.40;62.00
57833;DHT22;43667;53.036;6.740;2023-06-22T10:55:51;28.30;61.90
57833;DHT22;43667;53.036;6.740;2023-06-22T10:58:18;28.30;61.80
57833;DHT22;43667;53.036;6.740;2023-06-22T11:00:45;28.30;61.80
57833;DHT22;43667;53.036;6.740;2023-06-22T11:03:10;28.40;60.90
57833;DHT22;43667;53.036;6.740;2023-06-22T11:05:36;28.60;60.30
57833;DHT22;43667;53.036;6.740;2023-06-22T11:08:01;28.70;59.70
57833;DHT22;43667;53.036;6.740;2023-06-22T11:10:27;28.70;59.20
57833;DHT22;43667;53.036;6.740;2023-06-22T11:12:53;28.80;58.80
57833;DHT22;43667;53.036;6.740;2023-06-22T11:15:19;28.70;58.50
57833;DHT22;43667;53.036;6.740;2023-06-22T11:17:44;28.50;58.90
57833;DHT22;43667;53.036;6.740;2023-06-22T11:20:11;28.60;59.30
57833;DHT22;43667;53.036;6.740;2023-06-22T11:22:40;28.80;59.10
57833;DHT22;43667;53.036;6.740;2023-06-22T11:25:07;28.70;59.00
57833;DHT22;43667;53.036;6.740;2023-06-22T11:27:33;28.60;58.30
57833;DHT22;43667;53.036;6.740;2023-06-22T11:29:58;28.40;58.30
57833;DHT22;43667;53.036;6.740;2023-06-22T11:32:24;28.30;57.20
57833;DHT22;43667;53.036;6.740;2023-06-22T11:34:50;28.30;59.00
57833;DHT22;43667;53.036;6.740;2023-06-22T11:37:16;28.20;60.30
57833;DHT22;43667;53.036;6.740;2023-06-22T11:39:42;28.20;60.40
57833;DHT22;43667;53.036;6.740;2023-06-22T11:42:08;28.30;60.60
57833;DHT22;43667;53.036;6.740;2023-06-22T11:44:34;28.40;59.50
57833;DHT22;43667;53.036;6.740;2023-06-22T11:47:00;28.40;59.30
57833;DHT22;43667;53.036;6.740;2023-06-22T11:49:26;28.30;59.50
57833;DHT22;43667;53.036;6.740;2023-06-22T11:51:53;28.30;59.30
57833;DHT22;43667;53.036;6.740;2023-06-22T11:54:18;28.30;59.70
57833;DHT22;43667;53.036;6.740;2023-06-22T11:56:44;28.30;59.70
57833;DHT22;43667;53.036;6.740;2023-06-22T11:59:09;28.30;59.70
57833;DHT22;43667;53.036;6.740;2023-06-22T12:01:35;28.50;59.10
57833;DHT22;43667;53.036;6.740;2023-06-22T12:04:01;28.60;58.70
57833;DHT22;43667;53.036;6.740;2023-06-22T12:06:26;28.60;59.10
57833;DHT22;43667;53.036;6.740;2023-06-22T12:08:52;28.80;59.10
57833;DHT22;43667;53.036;6.740;2023-06-22T12:11:18;28.70;59.20
57833;DHT22;43667;53.036;6.740;2023-06-22T12:13:43;28.70;58.90
57833;DHT22;43667;53.036;6.740;2023-06-22T12:16:09;28.60;58.70
57833;DHT22;43667;53.036;6.740;2023-06-22T12:18:35;28.50;59.50
57833;DHT22;43667;53.036;6.740;2023-06-22T12:21:00;28.40;60.00
57833;DHT22;43667;53.036;6.740;2023-06-22T12:23:26;28.30;59.70
57833;DHT22;43667;53.036;6.740;2023-06-22T12:25:52;28.30;59.90
57833;DHT22;43667;53.036;6.740;2023-06-22T12:28:17;28.20;60.30
57833;DHT22;43667;53.036;6.740;2023-06-22T12:30:43;28.30;61.10
57833;DHT22;43667;53.036;6.740;2023-06-22T12:33:12;28.20;60.90
57833;DHT22;43667;53.036;6.740;2023-06-22T12:35:37;28.20;61.10
57833;DHT22;43667;53.036;6.740;2023-06-22T12:38:03;28.20;60.60
57833;DHT22;43667;53.036;6.740;2023-06-22T12:40:31;28.10;61.20
57833;DHT22;43667;53.036;6.740;2023-06-22T12:42:58;28.10;62.00
57833;DHT22;43667;53.036;6.740;2023-06-22T12:45:24;28.00;62.10
57833;DHT22;43667;53.036;6.740;2023-06-22T12:47:50;28.00;62.80
57833;DHT22;43667;53.036;6.740;2023-06-22T12:50:16;28.00;63.10
57833;DHT22;43667;53.036;6.740;2023-06-22T12:52:41;27.90;62.90
57833;DHT22;43667;53.036;6.740;2023-06-22T12:55:08;27.90;63.30
57833;DHT22;43667;53.036;6.740;2023-06-22T12:57:33;28.00;63.10
57833;DHT22;43667;53.036;6.740;2023-06-22T12:59:59;28.00;62.50
57833;DHT22;43667;53.036;6.740;2023-06-22T13:02:26;27.90;62.30
57833;DHT22;43667;53.036;6.740;2023-06-22T13:04:51;27.80;63.00
57833;DHT22;43667;53.036;6.740;2023-06-22T13:07:17;27.70;63.30
57833;DHT22;43667;53.036;6.740;2023-06-22T13:09:42;27.60;64.00
57833;DHT22;43667;53.036;6.740;2023-06-22T13:12:10;27.40;64.50
57833;DHT22;43667;53.036;6.740;2023-06-22T13:14:36;27.20;66.40
57833;DHT22;43667;53.036;6.740;2023-06-22T13:17:01;27.00;67.60
57833;DHT22;43667;53.036;6.740;2023-06-22T13:19:27;26.90;68.30
57833;DHT22;43667;53.036;6.740;2023-06-22T13:21:57;26.90;69.60
57833;DHT22;43667;53.036;6.740;2023-06-22T13:24:23;26.90;70.80
57833;DHT22;43667;53.036;6.740;2023-06-22T13:26:48;26.90;70.30
57833;DHT22;43667;53.036;6.740;2023-06-22T13:29:14;26.80;69.80
57833;DHT22;43667;53.036;6.740;2023-06-22T13:31:39;26.60;69.80
57833;DHT22;43667;53.036;6.740;2023-06-22T13:34:05;26.60;71.30
57833;DHT22;43667;53.036;6.740;2023-06-22T13:36:30;26.50;71.50
57833;DHT22;43667;53.036;6.740;2023-06-22T13:38:56;26.50;72.40
57833;DHT22;43667;53.036;6.740;2023-06-22T13:41:22;26.50;71.60
57833;DHT22;43667;53.036;6.740;2023-06-22T13:43:47;26.50;72.50
57833;DHT22;43667;53.036;6.740;2023-06-22T13:46:13;26.50;71.60
57833;DHT22;43667;53.036;6.740;2023-06-22T13:48:38;26.50;71.50
57833;DHT22;43667;53.036;6.740;2023-06-22T13:51:04;26.40;71.60
57833;DHT22;43667;53.036;6.740;2023-06-22T13:53:29;26.40;72.10
57833;DHT22;43667;53.036;6.740;2023-06-22T13:55:56;26.30;74.60
57833;DHT22;43667;53.036;6.740;2023-06-22T13:58:21;26.30;80.40
57833;DHT22;43667;53.036;6.740;2023-06-22T14:00:47;26.10;85.00
57833;DHT22;43667;53.036;6.740;2023-06-22T14:03:14;26.00;88.60
57833;DHT22;43667;53.036;6.740;2023-06-22T14:05:41;25.90;91.10
57833;DHT22;43667;53.036;6.740;2023-06-22T14:08:07;25.80;92.30
57833;DHT22;43667;53.036;6.740;2023-06-22T14:10:33;25.80;92.60
57833;DHT22;43667;53.036;6.740;2023-06-22T14:12:58;25.80;92.80
57833;DHT22;43667;53.036;6.740;2023-06-22T14:15:25;25.70;93.70
57833;DHT22;43667;53.036;6.740;2023-06-22T14:17:52;25.70;94.30
57833;DHT22;43667;53.036;6.740;2023-06-22T14:20:18;25.60;95.20
57833;DHT22;43667;53.036;6.740;2023-06-22T14:22:43;25.40;96.00
57833;DHT22;43667;53.036;6.740;2023-06-22T14:25:09;25.30;97.20
57833;DHT22;43667;53.036;6.740;2023-06-22T14:27:34;25.20;98.00
57833;DHT22;43667;53.036;6.740;2023-06-22T14:30:07;25.10;98.30
57833;DHT22;43667;53.036;6.740;2023-06-22T14:32:32;25.10;98.40
57833;DHT22;43667;53.036;6.740;2023-06-22T14:34:58;25.00;99.30
57833;DHT22;43667;53.036;6.740;2023-06-22T14:37:24;25.00;99.00
57833;DHT22;43667;53.036;6.740;2023-06-22T14:39:49;25.00;98.60
57833;DHT22;43667;53.036;6.740;2023-06-22T14:42:17;25.00;98.70
57833;DHT22;43667;53.036;6.740;2023-06-22T14:44:43;25.00;98.40
57833;DHT22;43667;53.036;6.740;2023-06-22T14:47:10;24.80;97.90
57833;DHT22;43667;53.036;6.740;2023-06-22T14:49:36;24.70;97.70
57833;DHT22;43667;53.036;6.740;2023-06-22T14:52:04;24.50;97.60
57833;DHT22;43667;53.036;6.740;2023-06-22T14:54:31;24.50;97.70
57833;DHT22;43667;53.036;6.740;2023-06-22T14:56:57;24.40;97.90
57833;DHT22;43667;53.036;6.740;2023-06-22T14:59:22;24.30;98.30
57833;DHT22;43667;53.036;6.740;2023-06-22T15:01:48;24.20;98.30
57833;DHT22;43667;53.036;6.740;2023-06-22T15:04:13;24.10;98.40
57833;DHT22;43667;53.036;6.740;2023-06-22T15:06:39;24.00;98.30
57833;DHT22;43667;53.036;6.740;2023-06-22T15:09:06;23.90;99.10
57833;DHT22;43667;53.036;6.740;2023-06-22T15:11:31;23.80;99.90
57833;DHT22;43667;53.036;6.740;2023-06-22T15:13:59;23.70;99.90
57833;DHT22;43667;53.036;6.740;2023-06-22T15:16:26;23.70;99.90
57833;DHT22;43667;53.036;6.740;2023-06-22T15:18:51;23.60;99.90
57833;DHT22;43667;53.036;6.740;2023-06-22T15:21:17;23.50;99.90
57833;DHT22;43667;53.036;6.740;2023-06-22T15:23:42;23.30;99.90
57833;DHT22;43667;53.036;6.740;2023-06-22T15:26:08;23.20;99.90
57833;DHT22;43667;53.036;6.740;2023-06-22T15:28:34;23.10;99.90